sensor_id;sensor_type;location;lat;lon;timestamp;P1;durP1;ratioP1;P2;durP2;ratioP2
75340;SDS011;64931;47.562;18.920;2022-11-15T00:00:43;23.80;;;13.30;;
75340;SDS011;64931;47.562;18.920;2022-11-15T00:03:09;36.30;;;19.00;;
75340;SDS011;64931;47.562;18.920;2022-11-15T00:05:35;29.00;;;15.90;;
75340;SDS011;64931;47.562;18.920;2022-11-15T00:08:01;20.70;;;11.90;;
75340;SDS011;64931;47.562;18.920;2022-11-15T00:10:26;19.90;;;11.30;;
75340;SDS011;64931;47.562;18.920;2022-11-15T00:12:52;22.40;;;11.60;;
75340;SDS011;64931;47.562;18.920;2022-11-15T00:15:17;16.80;;;9.80;;
75340;SDS011;64931;47.562;18.920;2022-11-15T00:17:42;12.60;;;6.70;;
75340;SDS011;64931;47.562;18.920;2022-11-15T00:20:08;12.90;;;6.80;;
75340;SDS011;64931;47.562;18.920;2022-11-15T00:22:34;15.80;;;7.80;;
75340;SDS011;64931;47.562;18.920;2022-11-15T00:24:59;22.60;;;10.90;;
75340;SDS011;64931;47.562;18.920;2022-11-15T00:27:25;19.50;;;9.40;;
75340;SDS011;64931;47.562;18.920;2022-11-15T00:29:50;21.00;;;11.30;;
75340;SDS011;64931;47.562;18.920;2022-11-15T00:32:16;18.70;;;9.10;;
75340;SDS011;64931;47.562;18.920;2022-11-15T00:34:41;16.30;;;9.60;;
75340;SDS011;64931;47.562;18.920;2022-11-15T00:37:06;20.40;;;11.10;;
75340;SDS011;64931;47.562;18.920;2022-11-15T00:39:32;20.50;;;10.40;;
75340;SDS011;64931;47.562;18.920;2022-11-15T00:41:57;14.90;;;8.40;;
75340;SDS011;64931;47.562;18.920;2022-11-15T00:44:22;15.40;;;8.50;;
75340;SDS011;64931;47.562;18.920;2022-11-15T00:46:48;16.30;;;9.10;;
75340;SDS011;64931;47.562;18.920;2022-11-15T00:49:13;16.40;;;9.30;;
75340;SDS011;64931;47.562;18.920;2022-11-15T00:51:39;15.00;;;8.20;;
75340;SDS011;64931;47.562;18.920;2022-11-15T00:54:04;13.70;;;8.50;;
75340;SDS011;64931;47.562;18.920;2022-11-15T00:56:29;18.20;;;10.70;;
75340;SDS011;64931;47.562;18.920;2022-11-15T00:58:55;18.60;;;10.70;;
75340;SDS011;64931;47.562;18.920;2022-11-15T01:01:20;19.20;;;10.80;;
75340;SDS011;64931;47.562;18.920;2022-11-15T01:03:46;20.40;;;10.40;;
75340;SDS011;64931;47.562;18.920;2022-11-15T01:06:11;20.40;;;12.10;;
75340;SDS011;64931;47.562;18.920;2022-11-15T01:08:40;15.90;;;9.40;;
75340;SDS011;64931;47.562;18.920;2022-11-15T01:11:06;14.10;;;8.70;;
75340;SDS011;64931;47.562;18.920;2022-11-15T01:13:34;17.90;;;10.20;;
75340;SDS011;64931;47.562;18.920;2022-11-15T01:16:08;15.80;;;8.60;;
75340;SDS011;64931;47.562;18.920;2022-11-15T01:18:39;13.80;;;8.10;;
75340;SDS011;64931;47.562;18.920;2022-11-15T01:21:06;24.70;;;12.70;;
75340;SDS011;64931;47.562;18.920;2022-11-15T01:23:35;22.70;;;12.20;;
75340;SDS011;64931;47.562;18.920;2022-11-15T01:26:00;17.50;;;9.30;;
75340;SDS011;64931;47.562;18.920;2022-11-15T01:28:31;17.50;;;9.20;;
75340;SDS011;64931;47.562;18.920;2022-11-15T01:30:58;24.90;;;12.00;;
75340;SDS011;64931;47.562;18.920;2022-11-15T01:33:25;29.10;;;14.00;;
75340;SDS011;64931;47.562;18.920;2022-11-15T01:35:50;21.30;;;11.20;;
75340;SDS011;64931;47.562;18.920;2022-11-15T01:38:16;20.00;;;10.80;;
75340;SDS011;64931;47.562;18.920;2022-11-15T01:40:41;20.50;;;11.30;;
75340;SDS011;64931;47.562;18.920;2022-11-15T01:43:19;20.80;;;11.50;;
75340;SDS011;64931;47.562;18.920;2022-11-15T01:45:50;22.50;;;11.50;;
75340;SDS011;64931;47.562;18.920;2022-11-15T01:48:22;47.80;;;19.30;;
75340;SDS011;64931;47.562;18.920;2022-11-15T01:50:48;40.60;;;16.60;;
75340;SDS011;64931;47.562;18.920;2022-11-15T01:53:14;29.40;;;13.40;;
75340;SDS011;64931;47.562;18.920;2022-11-15T01:55:41;16.00;;;8.10;;
75340;SDS011;64931;47.562;18.920;2022-11-15T01:58:06;13.00;;;7.20;;
75340;SDS011;64931;47.562;18.920;2022-11-15T02:00:32;14.50;;;7.90;;
75340;SDS011;64931;47.562;18.920;2022-11-15T02:02:57;14.60;;;8.10;;
75340;SDS011;64931;47.562;18.920;2022-11-15T02:05:22;16.00;;;9.50;;
75340;SDS011;64931;47.562;18.920;2022-11-15T02:07:48;11.90;;;7.20;;
75340;SDS011;64931;47.562;18.920;2022-11-15T02:10:17;11.90;;;6.50;;
75340;SDS011;64931;47.562;18.920;2022-11-15T02:12:44;11.50;;;6.20;;
75340;SDS011;64931;47.562;18.920;2022-11-15T02:15:10;12.30;;;7.60;;
75340;SDS011;64931;47.562;18.920;2022-11-15T02:31:53;16.30;;;9.00;;
75340;SDS011;64931;47.562;18.920;2022-11-15T02:39:58;13.20;;;7.70;;
75340;SDS011;64931;47.562;18.920;2022-11-15T02:42:30;11.60;;;6.70;;
75340;SDS011;64931;47.562;18.920;2022-11-15T02:45:29;11.00;;;6.50;;
75340;SDS011;64931;47.562;18.920;2022-11-15T02:47:59;10.50;;;5.90;;
75340;SDS011;64931;47.562;18.920;2022-11-15T02:50:25;11.90;;;5.50;;
75340;SDS011;64931;47.562;18.920;2022-11-15T02:52:53;8.90;;;4.40;;
75340;SDS011;64931;47.562;18.920;2022-11-15T02:55:26;7.00;;;4.20;;
75340;SDS011;64931;47.562;18.920;2022-11-15T02:57:57;6.20;;;3.50;;
75340;SDS011;64931;47.562;18.920;2022-11-15T03:01:00;7.40;;;3.80;;
75340;SDS011;64931;47.562;18.920;2022-11-15T03:03:49;9.90;;;3.90;;
75340;SDS011;64931;47.562;18.920;2022-11-15T03:11:32;6.50;;;3.50;;
75340;SDS011;64931;47.562;18.920;2022-11-15T03:14:07;9.40;;;4.50;;
75340;SDS011;64931;47.562;18.920;2022-11-15T03:22:19;9.40;;;4.50;;
75340;SDS011;64931;47.562;18.920;2022-11-15T03:24:50;7.70;;;4.30;;
75340;SDS011;64931;47.562;18.920;2022-11-15T03:27:19;8.90;;;5.20;;
75340;SDS011;64931;47.562;18.920;2022-11-15T03:29:49;10.00;;;5.70;;
75340;SDS011;64931;47.562;18.920;2022-11-15T03:32:18;11.10;;;6.00;;
75340;SDS011;64931;47.562;18.920;2022-11-15T03:34:51;12.20;;;6.70;;
75340;SDS011;64931;47.562;18.920;2022-11-15T03:37:20;13.00;;;7.40;;
75340;SDS011;64931;47.562;18.920;2022-11-15T03:39:47;13.70;;;7.60;;
75340;SDS011;64931;47.562;18.920;2022-11-15T03:47:27;12.80;;;7.00;;
75340;SDS011;64931;47.562;18.920;2022-11-15T03:49:58;10.50;;;6.40;;
75340;SDS011;64931;47.562;18.920;2022-11-15T03:52:25;9.20;;;5.20;;
75340;SDS011;64931;47.562;18.920;2022-11-15T03:54:55;10.20;;;5.30;;
75340;SDS011;64931;47.562;18.920;2022-11-15T03:57:21;10.40;;;6.00;;
75340;SDS011;64931;47.562;18.920;2022-11-15T03:59:46;9.80;;;4.80;;
75340;SDS011;64931;47.562;18.920;2022-11-15T04:02:12;8.10;;;4.30;;
75340;SDS011;64931;47.562;18.920;2022-11-15T04:04:38;7.60;;;3.60;;
75340;SDS011;64931;47.562;18.920;2022-11-15T04:07:03;6.40;;;3.40;;
75340;SDS011;64931;47.562;18.920;2022-11-15T04:09:29;8.30;;;4.70;;
75340;SDS011;64931;47.562;18.920;2022-11-15T04:11:54;7.70;;;4.70;;
75340;SDS011;64931;47.562;18.920;2022-11-15T04:14:20;11.40;;;6.10;;
75340;SDS011;64931;47.562;18.920;2022-11-15T04:16:45;9.20;;;4.60;;
75340;SDS011;64931;47.562;18.920;2022-11-15T04:19:10;8.30;;;4.50;;
75340;SDS011;64931;47.562;18.920;2022-11-15T04:21:55;9.00;;;4.80;;
75340;SDS011;64931;47.562;18.920;2022-11-15T04:24:39;10.60;;;6.30;;
75340;SDS011;64931;47.562;18.920;2022-11-15T04:27:04;10.90;;;6.40;;
75340;SDS011;64931;47.562;18.920;2022-11-15T04:29:30;14.90;;;7.80;;
75340;SDS011;64931;47.562;18.920;2022-11-15T04:32:04;12.30;;;6.80;;
75340;SDS011;64931;47.562;18.920;2022-11-15T04:34:31;8.90;;;5.30;;
75340;SDS011;64931;47.562;18.920;2022-11-15T04:36:57;10.40;;;5.70;;
75340;SDS011;64931;47.562;18.920;2022-11-15T04:39:38;9.70;;;5.40;;
75340;SDS011;64931;47.562;18.920;2022-11-15T04:42:07;10.50;;;5.00;;
75340;SDS011;64931;47.562;18.920;2022-11-15T04:44:33;10.60;;;5.50;;
75340;SDS011;64931;47.562;18.920;2022-11-15T04:46:58;11.60;;;7.10;;
75340;SDS011;64931;47.562;18.920;2022-11-15T04:49:24;8.00;;;4.80;;
75340;SDS011;64931;47.562;18.920;2022-11-15T04:51:49;11.50;;;5.50;;
75340;SDS011;64931;47.562;18.920;2022-11-15T04:54:14;8.40;;;4.80;;
75340;SDS011;64931;47.562;18.920;2022-11-15T04:56:40;12.50;;;7.00;;
75340;SDS011;64931;47.562;18.920;2022-11-15T04:59:05;13.70;;;7.00;;
75340;SDS011;64931;47.562;18.920;2022-11-15T05:01:31;11.50;;;6.60;;
75340;SDS011;64931;47.562;18.920;2022-11-15T05:03:56;10.80;;;6.50;;
75340;SDS011;64931;47.562;18.920;2022-11-15T05:06:40;11.70;;;6.20;;
75340;SDS011;64931;47.562;18.920;2022-11-15T05:09:06;9.90;;;5.90;;
75340;SDS011;64931;47.562;18.920;2022-11-15T05:11:31;10.40;;;5.80;;
75340;SDS011;64931;47.562;18.920;2022-11-15T05:13:57;9.60;;;5.80;;
75340;SDS011;64931;47.562;18.920;2022-11-15T05:16:22;9.90;;;5.00;;
75340;SDS011;64931;47.562;18.920;2022-11-15T05:18:50;10.60;;;5.80;;
75340;SDS011;64931;47.562;18.920;2022-11-15T05:21:19;10.40;;;5.50;;
75340;SDS011;64931;47.562;18.920;2022-11-15T05:23:44;9.60;;;5.80;;
75340;SDS011;64931;47.562;18.920;2022-11-15T05:26:10;12.10;;;6.90;;
75340;SDS011;64931;47.562;18.920;2022-11-15T05:28:36;10.90;;;5.90;;
75340;SDS011;64931;47.562;18.920;2022-11-15T05:33:32;9.00;;;5.00;;
75340;SDS011;64931;47.562;18.920;2022-11-15T05:36:59;12.70;;;7.20;;
75340;SDS011;64931;47.562;18.920;2022-11-15T05:38:57;12.00;;;7.00;;
75340;SDS011;64931;47.562;18.920;2022-11-15T05:41:27;21.80;;;13.50;;
75340;SDS011;64931;47.562;18.920;2022-11-15T05:44:07;13.70;;;8.30;;
75340;SDS011;64931;47.562;18.920;2022-11-15T05:46:34;22.90;;;12.30;;
75340;SDS011;64931;47.562;18.920;2022-11-15T05:49:00;16.30;;;8.90;;
75340;SDS011;64931;47.562;18.920;2022-11-15T05:51:26;12.70;;;7.20;;
75340;SDS011;64931;47.562;18.920;2022-11-15T05:53:52;14.00;;;7.40;;
75340;SDS011;64931;47.562;18.920;2022-11-15T05:56:18;11.30;;;6.60;;
75340;SDS011;64931;47.562;18.920;2022-11-15T05:58:43;11.80;;;7.30;;
75340;SDS011;64931;47.562;18.920;2022-11-15T06:01:09;12.10;;;7.20;;
75340;SDS011;64931;47.562;18.920;2022-11-15T06:03:34;11.60;;;7.30;;
75340;SDS011;64931;47.562;18.920;2022-11-15T06:06:00;10.60;;;6.20;;
75340;SDS011;64931;47.562;18.920;2022-11-15T06:08:25;15.70;;;9.50;;
75340;SDS011;64931;47.562;18.920;2022-11-15T06:10:50;12.40;;;7.60;;
75340;SDS011;64931;47.562;18.920;2022-11-15T06:13:16;11.20;;;6.50;;
75340;SDS011;64931;47.562;18.920;2022-11-15T06:15:41;11.80;;;6.70;;
75340;SDS011;64931;47.562;18.920;2022-11-15T06:18:07;12.30;;;7.00;;
75340;SDS011;64931;47.562;18.920;2022-11-15T06:20:32;11.50;;;6.70;;
75340;SDS011;64931;47.562;18.920;2022-11-15T06:23:01;11.80;;;6.80;;
75340;SDS011;64931;47.562;18.920;2022-11-15T06:25:30;13.20;;;7.40;;
75340;SDS011;64931;47.562;18.920;2022-11-15T06:27:56;14.30;;;7.50;;
75340;SDS011;64931;47.562;18.920;2022-11-15T06:30:23;13.00;;;7.60;;
75340;SDS011;64931;47.562;18.920;2022-11-15T06:32:49;14.80;;;7.80;;
75340;SDS011;64931;47.562;18.920;2022-11-15T06:35:15;12.60;;;7.40;;
75340;SDS011;64931;47.562;18.920;2022-11-15T06:37:40;10.90;;;6.50;;
75340;SDS011;64931;47.562;18.920;2022-11-15T06:40:07;13.00;;;7.60;;
75340;SDS011;64931;47.562;18.920;2022-11-15T06:42:33;13.90;;;7.50;;
75340;SDS011;64931;47.562;18.920;2022-11-15T06:44:59;14.80;;;7.80;;
75340;SDS011;64931;47.562;18.920;2022-11-15T06:47:24;13.70;;;8.50;;
75340;SDS011;64931;47.562;18.920;2022-11-15T06:49:50;14.80;;;9.10;;
75340;SDS011;64931;47.562;18.920;2022-11-15T06:52:15;17.80;;;10.50;;
75340;SDS011;64931;47.562;18.920;2022-11-15T06:54:43;16.30;;;10.10;;
75340;SDS011;64931;47.562;18.920;2022-11-15T06:57:09;14.80;;;9.10;;
75340;SDS011;64931;47.562;18.920;2022-11-15T06:59:35;17.80;;;10.40;;
75340;SDS011;64931;47.562;18.920;2022-11-15T07:02:01;18.40;;;11.20;;
75340;SDS011;64931;47.562;18.920;2022-11-15T07:04:27;19.00;;;11.50;;
75340;SDS011;64931;47.562;18.920;2022-11-15T07:06:52;21.50;;;13.20;;
75340;SDS011;64931;47.562;18.920;2022-11-15T07:09:17;19.50;;;12.20;;
75340;SDS011;64931;47.562;18.920;2022-11-15T07:11:43;28.00;;;15.30;;
75340;SDS011;64931;47.562;18.920;2022-11-15T07:14:08;17.20;;;10.60;;
75340;SDS011;64931;47.562;18.920;2022-11-15T07:16:34;17.70;;;10.10;;
75340;SDS011;64931;47.562;18.920;2022-11-15T07:19:01;21.70;;;12.60;;
75340;SDS011;64931;47.562;18.920;2022-11-15T07:21:27;19.50;;;11.40;;
75340;SDS011;64931;47.562;18.920;2022-11-15T07:23:52;22.20;;;13.70;;
75340;SDS011;64931;47.562;18.920;2022-11-15T07:26:17;23.60;;;15.30;;
75340;SDS011;64931;47.562;18.920;2022-11-15T07:28:43;21.70;;;12.50;;
75340;SDS011;64931;47.562;18.920;2022-11-15T07:31:08;20.60;;;12.90;;
75340;SDS011;64931;47.562;18.920;2022-11-15T07:33:34;20.50;;;13.40;;
75340;SDS011;64931;47.562;18.920;2022-11-15T07:36:00;23.40;;;15.60;;
75340;SDS011;64931;47.562;18.920;2022-11-15T07:38:26;24.90;;;14.90;;
75340;SDS011;64931;47.562;18.920;2022-11-15T07:40:56;21.60;;;12.30;;
75340;SDS011;64931;47.562;18.920;2022-11-15T07:43:23;22.60;;;13.10;;
75340;SDS011;64931;47.562;18.920;2022-11-15T07:45:48;20.30;;;13.90;;
75340;SDS011;64931;47.562;18.920;2022-11-15T07:48:14;22.90;;;14.20;;
75340;SDS011;64931;47.562;18.920;2022-11-15T07:50:42;24.80;;;15.80;;
75340;SDS011;64931;47.562;18.920;2022-11-15T07:53:08;25.30;;;15.60;;
75340;SDS011;64931;47.562;18.920;2022-11-15T07:55:34;25.20;;;15.50;;
75340;SDS011;64931;47.562;18.920;2022-11-15T07:58:09;31.50;;;18.90;;
75340;SDS011;64931;47.562;18.920;2022-11-15T08:00:36;29.50;;;19.20;;
75340;SDS011;64931;47.562;18.920;2022-11-15T08:03:03;32.70;;;21.10;;
75340;SDS011;64931;47.562;18.920;2022-11-15T08:05:29;27.90;;;18.40;;
75340;SDS011;64931;47.562;18.920;2022-11-15T08:07:55;33.30;;;20.00;;
75340;SDS011;64931;47.562;18.920;2022-11-15T08:10:21;31.50;;;19.20;;
75340;SDS011;64931;47.562;18.920;2022-11-15T08:12:46;27.30;;;17.60;;
75340;SDS011;64931;47.562;18.920;2022-11-15T08:15:12;29.50;;;19.30;;
75340;SDS011;64931;47.562;18.920;2022-11-15T08:17:37;27.80;;;18.00;;
75340;SDS011;64931;47.562;18.920;2022-11-15T08:20:02;29.20;;;18.80;;
75340;SDS011;64931;47.562;18.920;2022-11-15T08:22:28;29.80;;;19.70;;
75340;SDS011;64931;47.562;18.920;2022-11-15T08:24:53;32.90;;;20.40;;
75340;SDS011;64931;47.562;18.920;2022-11-15T08:27:19;27.80;;;18.30;;
75340;SDS011;64931;47.562;18.920;2022-11-15T08:29:45;29.20;;;18.80;;
75340;SDS011;64931;47.562;18.920;2022-11-15T08:32:11;30.30;;;19.00;;
75340;SDS011;64931;47.562;18.920;2022-11-15T08:34:37;32.80;;;19.70;;
75340;SDS011;64931;47.562;18.920;2022-11-15T08:37:03;29.60;;;18.20;;
75340;SDS011;64931;47.562;18.920;2022-11-15T08:39:29;27.60;;;18.40;;
75340;SDS011;64931;47.562;18.920;2022-11-15T08:41:54;30.20;;;18.80;;
75340;SDS011;64931;47.562;18.920;2022-11-15T08:44:20;26.30;;;17.30;;
75340;SDS011;64931;47.562;18.920;2022-11-15T08:46:45;27.50;;;18.10;;
75340;SDS011;64931;47.562;18.920;2022-11-15T08:49:11;28.70;;;17.10;;
75340;SDS011;64931;47.562;18.920;2022-11-15T08:51:36;28.70;;;18.60;;
75340;SDS011;64931;47.562;18.920;2022-11-15T08:54:02;27.10;;;18.00;;
75340;SDS011;64931;47.562;18.920;2022-11-15T08:56:27;26.30;;;17.30;;
75340;SDS011;64931;47.562;18.920;2022-11-15T08:58:53;28.10;;;18.30;;
75340;SDS011;64931;47.562;18.920;2022-11-15T09:01:19;30.80;;;20.30;;
75340;SDS011;64931;47.562;18.920;2022-11-15T09:03:45;29.60;;;19.30;;
75340;SDS011;64931;47.562;18.920;2022-11-15T09:06:11;28.90;;;19.50;;
75340;SDS011;64931;47.562;18.920;2022-11-15T09:08:36;29.90;;;18.50;;
75340;SDS011;64931;47.562;18.920;2022-11-15T09:11:05;24.30;;;16.30;;
75340;SDS011;64931;47.562;18.920;2022-11-15T09:13:32;32.40;;;19.80;;
75340;SDS011;64931;47.562;18.920;2022-11-15T09:15:58;27.60;;;17.20;;
75340;SDS011;64931;47.562;18.920;2022-11-15T09:18:24;32.80;;;21.20;;
75340;SDS011;64931;47.562;18.920;2022-11-15T09:20:49;27.80;;;19.30;;
75340;SDS011;64931;47.562;18.920;2022-11-15T09:23:15;29.50;;;20.00;;
75340;SDS011;64931;47.562;18.920;2022-11-15T09:25:40;30.80;;;19.30;;
75340;SDS011;64931;47.562;18.920;2022-11-15T09:28:06;30.00;;;19.10;;
75340;SDS011;64931;47.562;18.920;2022-11-15T09:30:32;29.10;;;18.70;;
75340;SDS011;64931;47.562;18.920;2022-11-15T09:32:58;31.50;;;21.00;;
75340;SDS011;64931;47.562;18.920;2022-11-15T09:35:23;31.20;;;19.90;;
75340;SDS011;64931;47.562;18.920;2022-11-15T09:37:48;28.50;;;17.90;;
75340;SDS011;64931;47.562;18.920;2022-11-15T09:40:14;22.90;;;15.70;;
75340;SDS011;64931;47.562;18.920;2022-11-15T09:42:45;27.70;;;17.60;;
75340;SDS011;64931;47.562;18.920;2022-11-15T09:50:37;27.30;;;17.70;;
75340;SDS011;64931;47.562;18.920;2022-11-15T09:53:25;26.30;;;17.50;;
75340;SDS011;64931;47.562;18.920;2022-11-15T10:01:00;27.00;;;17.60;;
75340;SDS011;64931;47.562;18.920;2022-11-15T10:03:30;27.90;;;18.40;;
75340;SDS011;64931;47.562;18.920;2022-11-15T10:06:00;27.10;;;17.60;;
75340;SDS011;64931;47.562;18.920;2022-11-15T10:11:15;33.00;;;19.60;;
75340;SDS011;64931;47.562;18.920;2022-11-15T10:13:45;31.80;;;20.30;;
75340;SDS011;64931;47.562;18.920;2022-11-15T10:24:35;30.90;;;19.20;;
75340;SDS011;64931;47.562;18.920;2022-11-15T10:27:06;28.60;;;18.70;;
75340;SDS011;64931;47.562;18.920;2022-11-15T10:29:34;27.60;;;18.20;;
75340;SDS011;64931;47.562;18.920;2022-11-15T10:32:00;31.00;;;19.90;;
75340;SDS011;64931;47.562;18.920;2022-11-15T10:34:25;28.70;;;17.70;;
75340;SDS011;64931;47.562;18.920;2022-11-15T10:39:21;30.50;;;19.80;;
75340;SDS011;64931;47.562;18.920;2022-11-15T10:41:49;30.60;;;19.60;;
75340;SDS011;64931;47.562;18.920;2022-11-15T10:49:29;34.10;;;22.90;;
75340;SDS011;64931;47.562;18.920;2022-11-15T10:52:04;32.60;;;20.10;;
75340;SDS011;64931;47.562;18.920;2022-11-15T10:57:12;28.50;;;18.80;;
75340;SDS011;64931;47.562;18.920;2022-11-15T10:59:49;27.00;;;18.20;;
75340;SDS011;64931;47.562;18.920;2022-11-15T11:02:26;32.00;;;20.10;;
75340;SDS011;64931;47.562;18.920;2022-11-15T11:04:55;31.10;;;20.00;;
75340;SDS011;64931;47.562;18.920;2022-11-15T11:07:21;31.50;;;19.70;;
75340;SDS011;64931;47.562;18.920;2022-11-15T11:09:59;35.60;;;23.90;;
75340;SDS011;64931;47.562;18.920;2022-11-15T11:12:34;31.70;;;21.10;;
75340;SDS011;64931;47.562;18.920;2022-11-15T11:15:00;34.50;;;22.00;;
75340;SDS011;64931;47.562;18.920;2022-11-15T11:20:18;35.60;;;22.70;;
75340;SDS011;64931;47.562;18.920;2022-11-15T11:23:02;34.60;;;22.30;;
75340;SDS011;64931;47.562;18.920;2022-11-15T11:25:43;39.90;;;24.50;;
75340;SDS011;64931;47.562;18.920;2022-11-15T11:34:02;36.40;;;23.90;;
75340;SDS011;64931;47.562;18.920;2022-11-15T11:39:21;38.10;;;24.30;;
75340;SDS011;64931;47.562;18.920;2022-11-15T11:42:13;38.50;;;23.90;;
75340;SDS011;64931;47.562;18.920;2022-11-15T11:47:29;39.60;;;25.20;;
75340;SDS011;64931;47.562;18.920;2022-11-15T11:50:41;34.00;;;22.80;;
75340;SDS011;64931;47.562;18.920;2022-11-15T11:52:59;33.40;;;22.50;;
75340;SDS011;64931;47.562;18.920;2022-11-15T11:55:52;34.50;;;21.50;;
75340;SDS011;64931;47.562;18.920;2022-11-15T11:58:32;35.20;;;22.80;;
75340;SDS011;64931;47.562;18.920;2022-11-15T12:01:22;35.60;;;22.80;;
75340;SDS011;64931;47.562;18.920;2022-11-15T12:14:31;39.00;;;23.20;;
75340;SDS011;64931;47.562;18.920;2022-11-15T12:17:36;35.10;;;21.70;;
75340;SDS011;64931;47.562;18.920;2022-11-15T12:20:04;37.30;;;22.40;;
75340;SDS011;64931;47.562;18.920;2022-11-15T12:25:31;39.50;;;23.00;;
75340;SDS011;64931;47.562;18.920;2022-11-15T12:29:15;39.10;;;22.20;;
75340;SDS011;64931;47.562;18.920;2022-11-15T12:31:21;33.20;;;21.30;;
75340;SDS011;64931;47.562;18.920;2022-11-15T12:34:01;41.50;;;24.60;;
75340;SDS011;64931;47.562;18.920;2022-11-15T12:36:39;40.20;;;26.00;;
75340;SDS011;64931;47.562;18.920;2022-11-15T12:39:11;35.30;;;23.30;;
75340;SDS011;64931;47.562;18.920;2022-11-15T12:41:42;37.90;;;23.00;;
75340;SDS011;64931;47.562;18.920;2022-11-15T12:44:12;38.50;;;23.30;;
75340;SDS011;64931;47.562;18.920;2022-11-15T13:02:24;38.60;;;22.20;;
75340;SDS011;64931;47.562;18.920;2022-11-15T13:04:52;35.80;;;21.90;;
75340;SDS011;64931;47.562;18.920;2022-11-15T13:08:01;30.50;;;20.40;;
75340;SDS011;64931;47.562;18.920;2022-11-15T13:10:55;39.30;;;24.90;;
75340;SDS011;64931;47.562;18.920;2022-11-15T13:13:13;34.10;;;20.70;;
75340;SDS011;64931;47.562;18.920;2022-11-15T13:16:12;38.70;;;23.20;;
75340;SDS011;64931;47.562;18.920;2022-11-15T13:18:44;43.40;;;26.70;;
75340;SDS011;64931;47.562;18.920;2022-11-15T13:21:26;36.70;;;23.00;;
75340;SDS011;64931;47.562;18.920;2022-11-15T13:24:11;35.30;;;20.80;;
75340;SDS011;64931;47.562;18.920;2022-11-15T13:26:38;41.50;;;23.70;;
75340;SDS011;64931;47.562;18.920;2022-11-15T13:29:12;38.60;;;24.30;;
75340;SDS011;64931;47.562;18.920;2022-11-15T13:31:41;45.20;;;25.50;;
75340;SDS011;64931;47.562;18.920;2022-11-15T13:34:28;43.30;;;27.40;;
75340;SDS011;64931;47.562;18.920;2022-11-15T13:36:58;44.70;;;26.60;;
75340;SDS011;64931;47.562;18.920;2022-11-15T13:39:28;47.60;;;28.50;;
75340;SDS011;64931;47.562;18.920;2022-11-15T13:41:58;40.50;;;24.50;;
75340;SDS011;64931;47.562;18.920;2022-11-15T13:44:26;42.40;;;27.20;;
75340;SDS011;64931;47.562;18.920;2022-11-15T13:47:06;49.50;;;31.20;;
75340;SDS011;64931;47.562;18.920;2022-11-15T13:49:35;43.00;;;26.20;;
75340;SDS011;64931;47.562;18.920;2022-11-15T13:52:01;40.80;;;25.90;;
75340;SDS011;64931;47.562;18.920;2022-11-15T13:54:30;46.60;;;30.00;;
75340;SDS011;64931;47.562;18.920;2022-11-15T13:57:03;48.70;;;28.00;;
75340;SDS011;64931;47.562;18.920;2022-11-15T13:59:34;46.20;;;28.00;;
75340;SDS011;64931;47.562;18.920;2022-11-15T14:02:03;41.80;;;25.50;;
75340;SDS011;64931;47.562;18.920;2022-11-15T14:04:38;50.60;;;29.70;;
75340;SDS011;64931;47.562;18.920;2022-11-15T14:07:14;52.20;;;31.20;;
75340;SDS011;64931;47.562;18.920;2022-11-15T14:09:41;47.20;;;27.30;;
75340;SDS011;64931;47.562;18.920;2022-11-15T14:14:54;44.30;;;27.00;;
75340;SDS011;64931;47.562;18.920;2022-11-15T14:17:41;47.40;;;28.30;;
75340;SDS011;64931;47.562;18.920;2022-11-15T14:22:53;72.20;;;42.50;;
75340;SDS011;64931;47.562;18.920;2022-11-15T14:25:21;48.40;;;28.20;;
75340;SDS011;64931;47.562;18.920;2022-11-15T14:30:38;45.30;;;26.10;;
75340;SDS011;64931;47.562;18.920;2022-11-15T14:35:53;47.70;;;27.80;;
75340;SDS011;64931;47.562;18.920;2022-11-15T14:38:19;39.70;;;25.90;;
75340;SDS011;64931;47.562;18.920;2022-11-15T14:40:45;52.50;;;34.50;;
75340;SDS011;64931;47.562;18.920;2022-11-15T14:43:15;39.80;;;25.90;;
75340;SDS011;64931;47.562;18.920;2022-11-15T14:45:53;49.10;;;29.00;;
75340;SDS011;64931;47.562;18.920;2022-11-15T14:48:18;46.10;;;28.30;;
75340;SDS011;64931;47.562;18.920;2022-11-15T14:50:47;65.80;;;45.90;;
75340;SDS011;64931;47.562;18.920;2022-11-15T14:53:18;53.20;;;31.60;;
75340;SDS011;64931;47.562;18.920;2022-11-15T14:55:45;102.70;;;76.00;;
75340;SDS011;64931;47.562;18.920;2022-11-15T14:58:13;44.90;;;28.80;;
75340;SDS011;64931;47.562;18.920;2022-11-15T15:00:46;40.30;;;23.80;;
75340;SDS011;64931;47.562;18.920;2022-11-15T15:03:13;38.40;;;23.80;;
75340;SDS011;64931;47.562;18.920;2022-11-15T15:05:40;51.00;;;30.50;;
75340;SDS011;64931;47.562;18.920;2022-11-15T15:08:07;43.30;;;27.00;;
75340;SDS011;64931;47.562;18.920;2022-11-15T15:10:36;39.00;;;22.60;;
75340;SDS011;64931;47.562;18.920;2022-11-15T15:13:12;43.10;;;26.20;;
75340;SDS011;64931;47.562;18.920;2022-11-15T15:15:41;53.60;;;33.20;;
75340;SDS011;64931;47.562;18.920;2022-11-15T15:18:07;45.40;;;28.10;;
75340;SDS011;64931;47.562;18.920;2022-11-15T15:20:34;43.80;;;24.90;;
75340;SDS011;64931;47.562;18.920;2022-11-15T15:23:00;53.80;;;33.20;;
75340;SDS011;64931;47.562;18.920;2022-11-15T15:25:30;54.20;;;34.60;;
75340;SDS011;64931;47.562;18.920;2022-11-15T15:28:01;47.30;;;27.30;;
75340;SDS011;64931;47.562;18.920;2022-11-15T15:30:27;68.70;;;44.20;;
75340;SDS011;64931;47.562;18.920;2022-11-15T15:32:54;52.40;;;30.70;;
75340;SDS011;64931;47.562;18.920;2022-11-15T15:35:20;47.20;;;28.20;;
75340;SDS011;64931;47.562;18.920;2022-11-15T15:37:46;49.60;;;29.40;;
75340;SDS011;64931;47.562;18.920;2022-11-15T15:43:03;135.00;;;82.90;;
75340;SDS011;64931;47.562;18.920;2022-11-15T15:45:29;47.40;;;28.50;;
75340;SDS011;64931;47.562;18.920;2022-11-15T15:47:56;54.80;;;37.00;;
75340;SDS011;64931;47.562;18.920;2022-11-15T15:52:52;139.10;;;83.40;;
75340;SDS011;64931;47.562;18.920;2022-11-15T15:55:20;60.90;;;35.60;;
75340;SDS011;64931;47.562;18.920;2022-11-15T15:57:46;68.20;;;47.70;;
75340;SDS011;64931;47.562;18.920;2022-11-15T16:00:11;64.60;;;35.80;;
75340;SDS011;64931;47.562;18.920;2022-11-15T16:02:38;44.80;;;27.30;;
75340;SDS011;64931;47.562;18.920;2022-11-15T16:05:04;51.30;;;33.10;;
75340;SDS011;64931;47.562;18.920;2022-11-15T16:07:30;46.20;;;28.90;;
75340;SDS011;64931;47.562;18.920;2022-11-15T16:09:55;57.50;;;33.00;;
75340;SDS011;64931;47.562;18.920;2022-11-15T16:12:30;56.80;;;34.50;;
75340;SDS011;64931;47.562;18.920;2022-11-15T16:14:59;47.90;;;30.40;;
75340;SDS011;64931;47.562;18.920;2022-11-15T16:17:31;45.70;;;29.50;;
75340;SDS011;64931;47.562;18.920;2022-11-15T16:19:59;69.60;;;46.80;;
75340;SDS011;64931;47.562;18.920;2022-11-15T16:22:24;43.20;;;28.10;;
75340;SDS011;64931;47.562;18.920;2022-11-15T16:24:50;40.70;;;24.30;;
75340;SDS011;64931;47.562;18.920;2022-11-15T16:27:19;47.50;;;27.20;;
75340;SDS011;64931;47.562;18.920;2022-11-15T16:29:46;51.40;;;29.20;;
75340;SDS011;64931;47.562;18.920;2022-11-15T16:32:11;41.50;;;25.50;;
75340;SDS011;64931;47.562;18.920;2022-11-15T16:34:37;49.30;;;30.30;;